Time;durP1;ratioP1;P1;durP2;ratioP2;P2;SDS_P1;SDS_P2;PMS_P1;PMS_P2;Temp;Humidity;BMP_temperature;BMP_pressure;BME280_temperature;BME280_humidity;BME280_pressure;Samples;Min_cycle;Max_cycle;Signal;HPM_P1;HPM_P2
2022/11/16 00:01:27;;;;;;;9.13;6.38;;;;;;;11.62;100.00;99757.16;5136045;27;20460;-65
2022/11/16 00:03:54;;;;;;;9.27;6.78;;;;;;;11.64;100.00;99755.34;5136148;27;20469;-65
2022/11/16 00:06:21;;;;;;;8.02;6.75;;;;;;;11.65;100.00;99749.16;5136288;27;20034;-66
2022/11/16 00:09:33;;;;;;;9.10;6.70;;;;;;;11.65;100.00;99763.28;5136214;27;20055;-65
2022/11/16 00:11:34;;;;;;;11.23;6.90;;;;;;;11.64;100.00;99769.44;5131961;27;20031;-66
2022/11/16 00:13:59;;;;;;;9.93;7.68;;;;;;;11.60;100.00;99772.16;5135974;27;20029;-65
2022/11/16 00:16:25;;;;;;;8.23;6.60;;;;;;;11.62;100.00;99765.97;5136239;27;20112;-65
2022/11/16 00:18:56;;;;;;;8.55;7.07;;;;;;;11.62;100.00;99755.38;5135970;27;20468;-64
2022/11/16 00:21:22;;;;;;;11.33;7.47;;;;;;;11.63;100.00;99767.69;5135927;27;20045;-66
2022/11/16 00:23:47;;;;;;;11.57;7.78;;;;;;;11.60;100.00;99772.16;5135894;27;20023;-64
2022/11/16 00:26:12;;;;;;;10.07;7.65;;;;;;;11.60;100.00;99782.72;5135779;27;20460;-65
2022/11/16 00:28:38;;;;;;;11.18;8.13;;;;;;;11.61;100.00;99765.97;5135538;27;20044;-64
2022/11/16 00:31:05;;;;;;;9.65;7.47;;;;;;;11.62;100.00;99765.97;5135620;27;20050;-64
2022/11/16 00:33:31;;;;;;;10.65;8.25;;;;;;;11.59;100.00;99765.09;5135676;27;20030;-64
2022/11/16 00:36:00;;;;;;;11.68;8.40;;;;;;;11.56;100.00;99767.78;5135627;27;20023;-64
2022/11/16 00:38:25;;;;;;;10.40;8.02;;;;;;;11.58;100.00;99760.72;5135476;27;20040;-65
2022/11/16 00:40:50;;;;;;;10.15;7.97;;;;;;;11.57;100.00;99769.56;5135410;27;20023;-64
2022/11/16 00:43:16;;;;;;;9.07;7.32;;;;;;;11.56;100.00;99766.00;5135472;27;20488;-64
2022/11/16 00:45:42;;;;;;;8.45;7.53;;;;;;;11.60;100.00;99766.84;5135359;27;20031;-64
2022/11/16 00:48:08;;;;;;;11.65;7.80;;;;;;;11.60;100.00;99745.69;5135335;27;20027;-64
2022/11/16 00:50:34;;;;;;;9.45;6.88;;;;;;;11.61;100.00;99740.41;5135223;27;20495;-64
2022/11/16 00:52:59;;;;;;;10.63;7.45;;;;;;;11.62;100.00;99741.28;5135132;27;20030;-64
2022/11/16 00:55:25;;;;;;;9.85;7.70;;;;;;;11.61;100.00;99732.47;5135186;27;20425;-65
2022/11/16 00:57:50;;;;;;;9.23;7.43;;;;;;;11.62;100.00;99725.41;5135124;27;20102;-64
2022/11/16 01:00:16;;;;;;;8.77;7.55;;;;;;;11.62;100.00;99728.03;5135060;27;20050;-64
2022/11/16 01:02:42;;;;;;;9.25;7.15;;;;;;;11.61;100.00;99732.47;5134673;27;20027;-64
2022/11/16 01:05:08;;;;;;;10.80;7.68;;;;;;;11.61;100.00;99740.41;5134925;27;20039;-64
2022/11/16 01:07:38;;;;;;;11.50;8.25;;;;;;;11.62;100.00;99751.84;5133697;27;20019;-65
2022/11/16 01:10:10;;;;;;;12.10;7.28;;;;;;;11.61;100.00;99752.75;5134885;27;20042;-64
2022/11/16 01:12:35;;;;;;;9.82;8.05;;;;;;;11.57;100.00;99736.03;5134792;27;20035;-65
2022/11/16 01:15:01;;;;;;;9.25;7.55;;;;;;;11.60;100.00;99733.31;5134869;27;20031;-64
2022/11/16 01:17:26;;;;;;;10.45;8.02;;;;;;;11.57;100.00;99748.38;5134374;27;20080;-65
2022/11/16 01:19:52;;;;;;;8.82;7.15;;;;;;;11.55;100.00;99743.09;5134832;27;20489;-65
2022/11/16 01:22:18;;;;;;;11.18;7.82;;;;;;;11.57;100.00;99714.88;5134631;27;20042;-64
2022/11/16 01:24:45;;;;;;;12.52;8.07;;;;;;;11.57;100.00;99733.38;5134620;27;20019;-65
2022/11/16 01:27:11;;;;;;;13.23;7.47;;;;;;;11.57;100.00;99728.09;5134226;27;20490;-65
2022/11/16 01:29:36;;;;;;;11.10;7.78;;;;;;;11.57;100.00;99725.44;5134580;27;20034;-64
2022/11/16 01:32:02;;;;;;;11.13;7.50;;;;;;;11.59;100.00;99723.66;5134296;27;20023;-65
2022/11/16 01:34:27;;;;;;;10.95;7.63;;;;;;;11.61;100.00;99721.00;5134402;27;20035;-65
2022/11/16 01:36:52;;;;;;;11.32;7.82;;;;;;;11.60;100.00;99730.69;5134623;27;20110;-65
2022/11/16 01:39:18;;;;;;;11.05;7.82;;;;;;;11.61;100.00;99710.41;5134337;27;20422;-65
2022/11/16 01:41:44;;;;;;;9.07;7.22;;;;;;;11.61;100.00;99715.72;5134233;27;20066;-65
2022/11/16 01:44:31;;;;;;;9.73;8.10;;;;;;;11.62;100.00;99709.53;5133120;27;20027;-65
2022/11/16 01:47:11;;;;;;;10.77;8.40;;;;;;;11.59;100.00;99725.41;5134260;27;20031;-65
2022/11/16 01:49:41;;;;;;;12.18;8.32;;;;;;;11.59;100.00;99715.72;5134273;27;20035;-65
2022/11/16 01:52:12;;;;;;;11.27;8.93;;;;;;;11.55;100.00;99714.00;5134165;27;20549;-65
2022/11/16 01:54:41;;;;;;;10.50;8.27;;;;;;;11.53;100.00;99716.66;5134165;27;20035;-66
2022/11/16 01:57:10;;;;;;;9.35;7.88;;;;;;;11.54;100.00;99714.88;5113426;28;20020;-66
2022/11/16 01:59:37;;;;;;;11.77;8.75;;;;;;;11.55;100.00;99719.28;5113314;28;20061;-66
2022/11/16 02:02:02;;;;;;;10.05;8.20;;;;;;;11.54;100.00;99709.59;5113382;28;20415;-65
2022/11/16 02:04:28;;;;;;;12.23;8.98;;;;;;;11.60;100.00;99708.66;5113415;28;20098;-65
2022/11/16 02:06:54;;;;;;;11.27;8.65;;;;;;;11.61;100.00;99708.66;5113334;28;20027;-65
2022/11/16 02:10:18;;;;;;;12.32;8.32;;;;;;;11.67;100.00;99699.75;5113246;28;20027;-65
2022/11/16 02:13:11;;;;;;;11.07;8.15;;;;;;;11.66;100.00;99711.25;5050128;28;20048;-65
2022/11/16 02:15:42;;;;;;;11.18;8.73;;;;;;;11.65;100.00;99701.53;5050663;28;20445;-65
2022/11/16 02:18:44;;;;;;;10.93;8.18;;;;;;;11.67;100.00;99699.75;5102474;28;20100;-65
2022/11/16 02:21:18;;;;;;;11.25;8.88;;;;;;;11.67;100.00;99702.41;5090015;28;20480;-65
2022/11/16 02:24:09;;;;;;;14.70;9.15;;;;;;;11.69;100.00;99709.44;5113195;28;20031;-65
2022/11/16 02:27:06;;;;;;;9.77;8.23;;;;;;;11.67;100.00;99703.28;5109474;28;20057;-65
2022/11/16 02:29:46;;;;;;;9.65;7.75;;;;;;;11.69;100.00;99696.22;5116303;28;20047;-65
2022/11/16 02:32:27;;;;;;;10.82;8.18;;;;;;;11.69;100.00;99693.56;5117463;28;20032;-65
2022/11/16 02:35:26;;;;;;;9.73;7.85;;;;;;;11.69;100.00;99696.22;5117284;28;20031;-65
2022/11/16 02:38:16;;;;;;;10.32;8.40;;;;;;;11.66;100.00;99693.59;5105697;28;20434;-65
2022/11/16 02:40:46;;;;;;;12.13;7.95;;;;;;;11.68;100.00;99697.06;5117162;28;20098;-66
2022/11/16 02:43:21;;;;;;;12.20;7.68;;;;;;;11.68;100.00;99693.56;5117269;28;20031;-65
2022/11/16 02:45:50;;;;;;;11.02;7.95;;;;;;;11.68;100.00;99704.13;5117168;28;20023;-64
2022/11/16 02:48:21;;;;;;;12.02;6.10;;;;;;;11.71;100.00;99706.75;5117142;28;20520;-65
2022/11/16 02:50:51;;;;;;;9.55;5.82;;;;;;;11.75;100.00;99709.34;5117030;28;20050;-65
2022/11/16 02:53:17;;;;;;;10.85;6.32;;;;;;;11.77;100.00;99714.59;5116910;28;20119;-65
2022/11/16 02:55:42;;;;;;;7.80;5.60;;;;;;;11.77;100.00;99710.19;5116708;28;20085;-64
2022/11/16 02:58:16;;;;;;;7.68;5.78;;;;;;;11.77;100.00;99714.59;5115579;28;20043;-64
2022/11/16 03:01:04;;;;;;;9.55;5.70;;;;;;;11.76;100.00;99726.97;5116980;28;20027;-65
2022/11/16 03:03:55;;;;;;;7.10;5.28;;;;;;;11.77;100.00;99722.53;5116629;28;20493;-65
2022/11/16 03:06:26;;;;;;;6.95;5.13;;;;;;;11.74;100.00;99720.84;5116738;28;20445;-65
2022/11/16 03:09:10;;;;;;;8.95;4.90;;;;;;;11.74;100.00;99712.91;5116775;28;20038;-64
2022/11/16 03:12:00;;;;;;;8.57;4.72;;;;;;;11.76;100.00;99710.22;5116934;28;20027;-64
2022/11/16 03:14:54;;;;;;;6.78;5.00;;;;;;;11.75;100.00;99706.69;5116873;28;20019;-65
2022/11/16 03:17:36;;;;;;;6.50;5.20;;;;;;;11.76;100.00;99702.28;5116587;28;20481;-64
2022/11/16 03:20:08;;;;;;;8.70;5.50;;;;;;;11.74;100.00;99699.66;5116656;28;20485;-65
2022/11/16 03:22:44;;;;;;;6.47;5.40;;;;;;;11.74;100.00;99715.53;5116807;28;20062;-65
2022/11/16 03:25:12;;;;;;;6.70;5.05;;;;;;;11.73;100.00;99721.75;5116526;28;20072;-66
2022/11/16 03:28:02;;;;;;;6.25;5.13;;;;;;;11.71;100.00;99720.88;5116118;28;20048;-68
2022/11/16 03:30:31;;;;;;;8.07;5.13;;;;;;;11.67;100.00;99710.34;5107050;28;20543;-65
2022/11/16 03:33:06;;;;;;;6.05;4.72;;;;;;;11.64;100.00;99715.66;5116064;28;20031;-65
2022/11/16 03:35:44;;;;;;;6.60;4.85;;;;;;;11.59;100.00;99718.34;5116263;28;20073;-65
2022/11/16 03:38:12;;;;;;;6.00;4.47;;;;;;;11.53;100.00;99721.97;5116392;28;20047;-65
2022/11/16 03:40:38;;;;;;;8.02;4.43;;;;;;;11.49;100.00;99724.66;5115455;28;20386;-65
2022/11/16 03:43:06;;;;;;;5.63;3.90;;;;;;;11.44;100.00;99732.66;5116025;28;20024;-65
2022/11/16 03:45:32;;;;;;;4.88;3.63;;;;;;;11.38;100.00;99730.03;5116226;27;20097;-65
2022/11/16 03:47:58;;;;;;;6.68;3.25;;;;;;;11.35;100.00;99742.41;5115885;28;20520;-66
2022/11/16 03:50:24;;;;;;;5.93;3.30;;;;;;;11.28;100.00;99734.56;5115867;28;20028;-65
2022/11/16 03:52:49;;;;;;;4.13;3.03;;;;;;;11.24;100.00;99745.19;5115813;28;20096;-65
2022/11/16 03:55:15;;;;;;;5.00;3.00;;;;;;;11.21;100.00;99745.22;5115734;28;20107;-65
2022/11/16 03:57:40;;;;;;;5.88;3.30;;;;;;;11.18;100.00;99747.91;5115841;28;20102;-65
2022/11/16 04:00:06;;;;;;;5.72;3.63;;;;;;;11.17;100.00;99744.34;5115617;28;20106;-65
2022/11/16 04:02:31;;;;;;;5.03;3.33;;;;;;;11.16;100.00;99752.31;5114270;28;20085;-65
2022/11/16 04:24:26;;;;;;;4.88;2.90;;;;;;;10.96;100.00;99760.41;5115572;28;20070;-65
2022/11/16 04:29:44;;;;;;;5.75;2.75;;;;;;;10.93;100.00;99758.69;5115509;28;20101;-64
2022/11/16 04:37:47;;;;;;;5.28;2.85;;;;;;;10.86;100.00;99767.53;5115310;28;20476;-65
2022/11/16 04:40:14;;;;;;;3.97;2.63;;;;;;;10.84;100.00;99771.97;5115014;28;20032;-65
2022/11/16 04:42:39;;;;;;;5.75;2.90;;;;;;;10.83;100.00;99770.19;5115057;28;20027;-65
2022/11/16 04:47:50;;;;;;;5.97;2.80;;;;;;;10.80;100.00;99775.53;5115151;28;20038;-64
2022/11/16 04:50:17;;;;;;;6.90;2.80;;;;;;;10.78;100.00;99783.44;5114661;28;20031;-64
2022/11/16 04:52:42;;;;;;;7.70;2.60;;;;;;;10.75;100.00;99794.06;5113926;28;20065;-65
2022/11/16 04:55:09;;;;;;;7.22;2.53;;;;;;;10.71;100.00;99794.97;5114546;28;20036;-64
2022/11/16 04:57:34;;;;;;;4.35;2.70;;;;;;;10.67;100.00;99802.94;5114555;28;20028;-64
2022/11/16 05:00:00;;;;;;;5.00;2.80;;;;;;;10.64;100.00;99797.66;5113474;28;20073;-65
2022/11/16 05:02:26;;;;;;;5.43;2.88;;;;;;;10.60;100.00;99807.34;5114229;28;20040;-65
2022/11/16 05:04:51;;;;;;;7.47;3.28;;;;;;;10.59;100.00;99816.19;5114396;28;20469;-65
2022/11/16 05:07:16;;;;;;;6.90;3.40;;;;;;;10.57;100.00;99815.28;5114505;28;20065;-64
2022/11/16 05:09:44;;;;;;;7.85;3.45;;;;;;;10.57;100.00;99810.00;5114351;28;20103;-64
2022/11/16 05:12:13;;;;;;;6.15;3.40;;;;;;;10.58;100.00;99808.25;5114546;28;20028;-65
2022/11/16 05:14:39;;;;;;;6.93;3.30;;;;;;;10.57;100.00;99804.72;5114204;28;20031;-64
2022/11/16 05:17:05;;;;;;;8.10;3.28;;;;;;;10.58;100.00;99806.50;5114223;28;20028;-64
2022/11/16 05:22:14;;;;;;;6.85;3.22;;;;;;;10.53;100.00;99816.19;5114248;28;20065;-64
2022/11/16 05:24:39;;;;;;;5.18;3.20;;;;;;;10.49;100.00;99817.09;5113913;28;20031;-64
2022/11/16 05:27:08;;;;;;;9.85;3.38;;;;;;;10.45;100.00;99813.63;5113832;28;20507;-64
2022/11/16 05:29:33;;;;;;;6.55;2.97;;;;;;;10.41;100.00;99808.38;5113982;28;20480;-64
2022/11/16 05:32:00;;;;;;;5.80;3.20;;;;;;;10.40;100.00;99809.22;5113726;28;20028;-64
2022/11/16 05:34:26;;;;;;;6.60;3.40;;;;;;;10.36;100.00;99803.06;5113709;28;20051;-64
2022/11/16 05:36:51;;;;;;;6.63;3.03;;;;;;;10.36;99.82;99811.00;5114069;28;20116;-65
2022/11/16 05:39:18;;;;;;;6.20;3.20;;;;;;;10.35;100.00;99803.97;5113896;28;20107;-64
2022/11/16 05:41:43;;;;;;;7.40;3.17;;;;;;;10.32;99.76;99798.72;5113638;28;20388;-64
2022/11/16 05:44:09;;;;;;;7.88;3.38;;;;;;;10.30;99.50;99803.13;5113620;28;20027;-64
2022/11/16 05:46:34;;;;;;;7.38;2.88;;;;;;;10.28;99.19;99804.91;5113842;28;20028;-64
2022/11/16 05:49:00;;;;;;;11.38;3.30;;;;;;;10.23;99.45;99796.06;5113591;28;20476;-64
2022/11/16 05:51:25;;;;;;;6.65;3.50;;;;;;;10.21;99.76;99800.50;5113846;28;20092;-64
2022/11/16 05:53:51;;;;;;;7.88;3.50;;;;;;;10.15;99.61;99796.13;5113532;28;20028;-64
2022/11/16 05:56:16;;;;;;;6.93;3.22;;;;;;;10.11;100.00;99810.22;5112254;28;20339;-63
2022/11/16 05:58:43;;;;;;;8.75;3.22;;;;;;;10.03;99.86;99807.59;5113340;28;20549;-64
2022/11/16 06:01:09;;;;;;;7.75;3.60;;;;;;;9.98;99.92;99808.53;5113379;28;20119;-64
2022/11/16 06:03:35;;;;;;;6.93;3.50;;;;;;;9.95;100.00;99813.78;5113056;28;20051;-64
2022/11/16 06:06:02;;;;;;;9.82;3.60;;;;;;;9.91;100.00;99815.56;5112089;28;20403;-64
2022/11/16 06:08:28;;;;;;;8.68;3.50;;;;;;;9.87;99.89;99819.09;5113711;28;20037;-64
2022/11/16 06:10:53;;;;;;;9.48;3.65;;;;;;;9.81;100.00;99819.13;5113574;28;20057;-64
2022/11/16 06:13:19;;;;;;;7.60;3.70;;;;;;;9.81;100.00;99824.41;5113296;28;20024;-64
2022/11/16 06:15:44;;;;;;;9.77;4.00;;;;;;;9.77;100.00;99831.44;5113414;28;20077;-64
2022/11/16 06:18:10;;;;;;;6.85;3.90;;;;;;;9.74;100.00;99833.19;5113308;28;20487;-64
2022/11/16 06:20:38;;;;;;;7.95;3.67;;;;;;;9.73;100.00;99829.69;5113319;28;20457;-63
2022/11/16 06:23:03;;;;;;;10.00;3.75;;;;;;;9.71;100.00;99831.44;5113285;28;20035;-64
2022/11/16 06:25:29;;;;;;;9.05;4.05;;;;;;;9.71;100.00;99841.13;5113300;28;20028;-64
2022/11/16 06:27:55;;;;;;;8.85;3.90;;;;;;;9.68;100.00;99835.88;5113185;28;20052;-64
2022/11/16 06:30:21;;;;;;;8.25;3.72;;;;;;;9.63;100.00;99843.75;5113137;28;20039;-64
2022/11/16 06:32:46;;;;;;;8.05;3.80;;;;;;;9.61;100.00;99855.22;5112966;28;20036;-64
2022/11/16 06:35:11;;;;;;;10.50;3.95;;;;;;;9.57;100.00;99861.38;5112549;28;20035;-64
2022/11/16 06:37:37;;;;;;;7.95;3.42;;;;;;;9.53;100.00;99861.34;5113138;28;20493;-64
2022/11/16 06:40:02;;;;;;;9.63;3.90;;;;;;;9.52;100.00;99858.75;5113022;28;20043;-63
2022/11/16 06:42:28;;;;;;;6.95;3.85;;;;;;;9.48;100.00;99860.50;5112919;28;20036;-64
2022/11/16 06:44:53;;;;;;;10.13;3.70;;;;;;;9.50;100.00;99857.84;5112983;28;20044;-64
2022/11/16 06:47:18;;;;;;;9.25;3.78;;;;;;;9.49;100.00;99864.00;5113289;28;20054;-64
2022/11/16 06:49:45;;;;;;;7.97;3.60;;;;;;;9.49;100.00;99864.00;5111659;28;20024;-64
2022/11/16 06:52:11;;;;;;;10.55;3.70;;;;;;;9.50;100.00;99865.75;5112959;28;20035;-64
2022/11/16 06:54:36;;;;;;;6.35;3.42;;;;;;;9.47;100.00;99866.66;5112968;28;20440;-64
2022/11/16 06:57:02;;;;;;;8.95;3.72;;;;;;;9.44;100.00;99877.19;5113073;28;20106;-64
2022/11/16 06:59:27;;;;;;;10.50;4.00;;;;;;;9.39;100.00;99883.34;5128852;28;20035;-64
2022/11/16 07:01:53;;;;;;;8.60;3.45;;;;;;;9.35;100.00;99871.06;5111486;28;20187;-64
2022/11/16 07:04:18;;;;;;;7.60;3.78;;;;;;;9.31;100.00;99878.06;5112827;28;20054;-64
2022/11/16 07:06:43;;;;;;;11.85;3.83;;;;;;;9.31;100.00;99880.72;5112870;28;20054;-64
2022/11/16 07:09:09;;;;;;;9.73;3.95;;;;;;;9.31;100.00;99879.84;5111440;28;20131;-64
2022/11/16 07:11:35;;;;;;;8.88;4.20;;;;;;;9.25;100.00;99876.31;5112874;28;20458;-63
2022/11/16 07:14:01;;;;;;;10.88;4.05;;;;;;;9.26;100.00;99877.19;5113046;28;20024;-63
2022/11/16 07:16:27;;;;;;;6.85;3.67;;;;;;;9.25;100.00;99884.22;5116827;27;20024;-64
2022/11/16 07:18:55;;;;;;;9.95;4.07;;;;;;;9.22;100.00;99878.94;5116690;28;20530;-64
2022/11/16 07:21:20;;;;;;;7.68;4.15;;;;;;;9.21;100.00;99885.09;5116299;28;20132;-63
2022/11/16 07:23:46;;;;;;;10.07;4.55;;;;;;;9.23;100.00;99887.72;5116353;28;20031;-64
2022/11/16 07:26:11;;;;;;;9.45;4.47;;;;;;;9.21;100.00;99887.75;5116362;28;20023;-64
2022/11/16 07:28:36;;;;;;;9.95;4.72;;;;;;;9.23;100.00;99888.59;5116106;28;20055;-64
2022/11/16 07:31:04;;;;;;;10.20;4.70;;;;;;;9.24;100.00;99897.38;5116278;28;20081;-62
2022/11/16 07:33:29;;;;;;;14.20;5.03;;;;;;;9.22;100.00;99900.03;5116299;28;20020;-64
2022/11/16 07:36:04;;;;;;;14.93;4.82;;;;;;;9.27;100.00;99910.59;5116087;28;20470;-63
2022/11/16 07:38:30;;;;;;;13.63;4.82;;;;;;;9.30;100.00;99918.50;5116223;28;20028;-64
2022/11/16 07:41:04;;;;;;;12.05;5.18;;;;;;;9.32;100.00;99916.72;5115995;28;20370;-63
2022/11/16 07:43:31;;;;;;;11.23;4.82;;;;;;;9.36;100.00;99922.88;5115976;28;20042;-64
2022/11/16 07:46:14;;;;;;;9.90;4.65;;;;;;;9.43;100.00;99919.41;5115960;28;20063;-64
2022/11/16 07:48:43;;;;;;;12.95;4.93;;;;;;;9.46;100.00;99919.38;5115814;28;20016;-63
2022/11/16 07:51:14;;;;;;;13.00;4.75;;;;;;;9.51;100.00;99917.63;5114452;28;20046;-64
2022/11/16 07:53:40;;;;;;;11.98;4.47;;;;;;;9.57;100.00;99924.66;5115830;28;20023;-64
2022/11/16 07:56:06;;;;;;;11.65;4.53;;;;;;;9.63;100.00;99916.72;5115779;28;20031;-63
2022/11/16 07:58:32;;;;;;;13.45;4.18;;;;;;;9.69;99.13;99920.25;5115689;28;20054;-63
2022/11/16 08:01:03;;;;;;;13.88;4.22;;;;;;;9.83;98.74;99925.53;5115570;28;20038;-63
2022/11/16 08:03:32;;;;;;;11.10;3.72;;;;;;;9.93;97.70;99921.09;5115672;28;20046;-64
2022/11/16 08:06:11;;;;;;;12.88;4.00;;;;;;;10.06;96.59;99919.31;5114191;28;20028;-64
2022/11/16 08:08:36;;;;;;;10.05;3.80;;;;;;;10.16;95.73;99929.88;5115626;28;20488;-65
2022/11/16 08:11:04;;;;;;;11.93;3.72;;;;;;;10.30;95.42;99931.63;5115495;28;20089;-64
2022/11/16 08:13:33;;;;;;;9.15;3.70;;;;;;;10.42;94.22;99926.31;5115359;28;20035;-64
2022/11/16 08:16:08;;;;;;;8.52;3.53;;;;;;;10.58;93.78;99932.41;5115258;28;20092;-64
2022/11/16 08:18:34;;;;;;;10.20;3.53;;;;;;;10.72;92.76;99934.13;5115407;28;20080;-64
2022/11/16 08:21:00;;;;;;;13.90;3.33;;;;;;;10.77;91.51;99932.31;5115187;28;20042;-64
2022/11/16 08:23:27;;;;;;;11.48;2.88;;;;;;;10.84;90.48;99933.19;5115216;28;20015;-64
2022/11/16 08:26:14;;;;;;;11.15;3.28;;;;;;;10.99;90.58;99942.78;5115073;28;20085;-64
2022/11/16 08:28:42;;;;;;;14.10;3.45;;;;;;;11.16;90.20;99940.91;5115192;28;20059;-64
2022/11/16 08:31:10;;;;;;;11.10;2.95;;;;;;;11.30;88.07;99938.16;5115163;28;20084;-64
2022/11/16 08:33:35;;;;;;;14.00;3.40;;;;;;;11.48;87.04;99937.19;5115141;28;20031;-64
2022/11/16 08:36:15;;;;;;;10.98;2.97;;;;;;;11.80;86.03;99939.56;5114911;28;20375;-64
2022/11/16 08:38:41;;;;;;;15.13;3.13;;;;;;;12.10;84.51;99937.56;5114930;28;20028;-64
2022/11/16 08:41:06;;;;;;;10.77;3.10;;;;;;;12.20;82.41;99933.91;5114787;28;20156;-64
2022/11/16 08:43:32;;;;;;;12.80;3.25;;;;;;;12.35;81.64;99933.75;5114815;28;20431;-65
2022/11/16 08:45:59;;;;;;;10.38;3.10;;;;;;;12.45;81.25;99940.69;5114962;28;20419;-64
2022/11/16 08:48:24;;;;;;;12.48;3.45;;;;;;;12.65;80.07;99942.25;5114998;28;20027;-64
2022/11/16 08:50:50;;;;;;;11.50;2.78;;;;;;;12.96;79.60;99938.28;5114837;28;20384;-63
2022/11/16 08:53:15;;;;;;;12.27;3.17;;;;;;;13.00;77.83;99949.72;5113656;28;20461;-64
2022/11/16 08:55:41;;;;;;;11.35;2.72;;;;;;;13.23;77.89;99944.13;5114627;28;20520;-64
2022/11/16 08:58:07;;;;;;;9.35;2.90;;;;;;;13.35;76.41;99937.78;5114596;28;20035;-65
2022/11/16 09:00:33;;;;;;;9.10;2.85;;;;;;;13.50;74.78;99954.34;5114775;28;20023;-64
2022/11/16 09:02:58;;;;;;;11.80;2.88;;;;;;;13.65;73.93;99955.00;5114189;28;20501;-65
2022/11/16 09:05:23;;;;;;;7.50;2.65;;;;;;;13.95;73.92;99964.22;5114631;28;20074;-64
2022/11/16 09:07:49;;;;;;;11.40;2.90;;;;;;;14.01;71.74;99961.47;5113679;28;20469;-65
2022/11/16 09:10:14;;;;;;;9.13;2.70;;;;;;;14.12;71.26;99966.59;5114235;28;20068;-64
2022/11/16 09:12:40;;;;;;;11.85;2.60;;;;;;;14.28;70.06;99955.66;5114169;28;20492;-64
2022/11/16 09:15:06;;;;;;;7.47;2.55;;;;;;;14.28;71.29;99960.09;5114152;28;20023;-64
2022/11/16 09:17:31;;;;;;;13.52;3.00;;;;;;;14.12;70.28;99948.88;5114082;28;20381;-63
2022/11/16 09:19:57;;;;;;;11.35;3.13;;;;;;;14.23;70.24;99951.34;5114122;28;20024;-64
2022/11/16 09:22:22;;;;;;;10.52;2.90;;;;;;;14.48;69.28;99949.09;5095798;28;20027;-64
2022/11/16 09:24:49;;;;;;;15.60;2.90;;;;;;;14.53;68.26;99957.88;5114211;28;20092;-65
2022/11/16 09:27:15;;;;;;;10.57;2.60;;;;;;;14.38;69.27;99952.81;5113817;28;20032;-65
2022/11/16 09:29:41;;;;;;;8.63;2.63;;;;;;;14.11;69.95;99963.06;5114192;28;20035;-64
2022/11/16 09:32:06;;;;;;;13.40;3.03;;;;;;;13.97;70.66;99962.44;5113711;28;20431;-65
2022/11/16 09:34:35;;;;;;;9.73;2.80;;;;;;;13.80;71.10;99960.06;5114090;28;20035;-64
2022/11/16 09:37:01;;;;;;;16.92;3.10;;;;;;;13.61;71.13;99959.47;5113230;28;20112;-64
2022/11/16 09:39:31;;;;;;;10.50;2.67;;;;;;;13.48;72.11;99956.13;5113749;28;20036;-63
2022/11/16 09:42:15;;;;;;;7.82;2.67;;;;;;;13.56;73.12;99961.31;5113727;28;20031;-63
2022/11/16 09:44:49;;;;;;;10.02;2.67;;;;;;;13.42;73.18;99966.84;5113472;28;20055;-63
2022/11/16 09:47:20;;;;;;;8.45;2.55;;;;;;;13.39;73.81;99961.56;5113802;28;20020;-63
2022/11/16 09:49:54;;;;;;;10.95;2.95;;;;;;;13.29;73.47;99962.63;5113574;28;20028;-63
2022/11/16 09:52:19;;;;;;;8.75;2.75;;;;;;;13.27;74.10;99959.09;5113713;28;20034;-63
2022/11/16 09:54:46;;;;;;;12.45;2.70;;;;;;;13.08;72.90;99979.69;5113892;28;20023;-63
2022/11/16 09:57:18;;;;;;;9.52;2.70;;;;;;;13.13;74.92;99963.69;5113663;28;20027;-63
2022/11/16 09:59:50;;;;;;;8.15;2.53;;;;;;;13.21;73.68;99972.44;5112453;28;20469;-63
2022/11/16 10:02:24;;;;;;;13.63;2.53;;;;;;;13.31;73.38;99968.78;5113430;28;20358;-63
2022/11/16 10:05:11;;;;;;;10.57;2.58;;;;;;;13.30;72.82;99974.97;5114826;28;20027;-63
2022/11/16 10:07:37;;;;;;;11.55;2.58;;;;;;;13.35;72.40;99972.25;5133917;27;20038;-63
2022/11/16 10:10:02;;;;;;;8.73;2.50;;;;;;;13.47;73.03;99974.75;5133807;27;20098;-63
2022/11/16 10:12:42;;;;;;;7.47;2.53;;;;;;;13.52;71.59;99975.53;5132457;27;20515;-63
2022/11/16 10:15:38;;;;;;;14.10;2.80;;;;;;;13.61;71.69;99970.09;5134039;27;20031;-62
2022/11/16 10:18:54;;;;;;;11.27;2.60;;;;;;;13.88;72.02;99968.78;5133777;27;20084;-63
2022/11/16 10:21:28;;;;;;;9.65;2.47;;;;;;;13.99;69.94;99968.59;5090608;28;20184;-63
2022/11/16 10:24:07;;;;;;;10.02;2.60;;;;;;;13.90;69.00;99976.72;5090808;28;20028;-62
2022/11/16 10:26:58;;;;;;;8.55;2.33;;;;;;;13.95;69.38;99967.75;5120269;27;20092;-62
2022/11/16 10:29:56;;;;;;;8.27;2.40;;;;;;;13.99;69.36;99966.81;5133471;28;20047;-62
2022/11/16 10:32:27;;;;;;;10.80;2.70;;;;;;;13.97;68.77;99952.69;5116396;27;20088;-63
2022/11/16 10:35:08;;;;;;;7.47;2.20;;;;;;;14.00;68.35;99959.69;5133926;27;20031;-64
2022/11/16 10:37:36;;;;;;;8.30;2.70;;;;;;;14.10;70.00;99955.13;5133623;27;20023;-63
2022/11/16 10:40:16;;;;;;;9.77;3.05;;;;;;;14.17;70.02;99951.44;5133595;27;20055;-62
2022/11/16 10:42:43;;;;;;;10.55;2.65;;;;;;;14.25;68.21;99955.69;5133688;27;20120;-62
2022/11/16 10:45:09;;;;;;;9.18;2.38;;;;;;;14.27;68.74;99961.88;5133455;27;20469;-63
2022/11/16 10:47:43;;;;;;;8.65;2.63;;;;;;;14.36;68.50;99952.00;5133715;28;20134;-63
2022/11/16 10:50:33;;;;;;;10.15;2.60;;;;;;;14.32;68.93;99952.94;5135557;27;20101;-64
2022/11/16 10:52:59;;;;;;;10.13;2.50;;;;;;;14.37;67.75;99964.34;5137625;27;20022;-64
2022/11/16 10:55:27;;;;;;;10.82;2.63;;;;;;;14.39;69.21;99952.81;5137545;27;20019;-62
2022/11/16 10:58:04;;;;;;;10.45;2.35;;;;;;;14.54;65.73;99951.66;5137508;27;20030;-62
2022/11/16 11:00:32;;;;;;;8.57;2.45;;;;;;;14.60;67.02;99958.63;5137597;27;20548;-62
2022/11/16 11:02:57;;;;;;;8.98;2.30;;;;;;;14.52;66.84;99962.31;5137200;27;20026;-62
2022/11/16 11:05:24;;;;;;;8.65;2.30;;;;;;;14.45;66.76;99965.97;5137104;27;20031;-62
2022/11/16 11:07:58;;;;;;;6.97;2.17;;;;;;;14.22;66.80;99960.22;5137432;27;20115;-62
2022/11/16 11:10:29;;;;;;;9.13;2.28;;;;;;;14.08;67.05;99959.56;5137334;27;20023;-62
2022/11/16 11:13:21;;;;;;;7.90;2.25;;;;;;;13.91;67.96;99943.94;5137479;27;20076;-62
2022/11/16 11:15:47;;;;;;;12.40;2.53;;;;;;;13.92;67.98;99951.03;5137283;27;20034;-62
2022/11/16 11:18:22;;;;;;;9.27;2.60;;;;;;;14.16;67.12;99945.25;5137361;27;20019;-63
2022/11/16 11:20:51;;;;;;;5.95;2.08;;;;;;;14.38;67.25;99943.06;5137184;27;20460;-63
2022/11/16 11:23:22;;;;;;;8.75;2.20;;;;;;;14.46;64.98;99953.53;5137053;27;20102;-63
2022/11/16 11:25:56;;;;;;;8.27;2.00;;;;;;;14.40;63.87;99945.72;5136966;27;20023;-63
2022/11/16 11:28:26;;;;;;;9.93;2.70;;;;;;;14.56;65.82;99943.63;5136670;27;20034;-65
2022/11/16 11:30:57;;;;;;;10.00;2.00;;;;;;;14.61;65.14;99947.09;5136959;27;20031;-63
2022/11/16 11:33:24;;;;;;;10.52;2.45;;;;;;;14.36;64.42;99938.69;5136873;27;20015;-63
2022/11/16 11:36:01;;;;;;;9.48;2.30;;;;;;;14.34;65.64;99937.84;5135437;27;20019;-63
2022/11/16 11:38:27;;;;;;;12.38;2.55;;;;;;;14.06;65.21;99943.69;5137079;27;20028;-63
2022/11/16 11:41:00;;;;;;;6.10;2.00;;;;;;;13.84;65.62;99932.56;5136680;27;20030;-63
2022/11/16 11:43:27;;;;;;;8.82;2.13;;;;;;;13.67;66.90;99937.28;5136771;27;20095;-65
2022/11/16 11:46:19;;;;;;;7.15;2.17;;;;;;;13.61;67.77;99942.66;5136851;27;20035;-63
2022/11/16 11:49:02;;;;;;;13.73;2.20;;;;;;;13.50;68.44;99922.50;5135429;27;20029;-63
2022/11/16 11:51:38;;;;;;;;;;;;;;;13.61;68.88;99927.59;5137070;27;20020;-64
2022/11/16 11:54:06;;;;;;;7.03;2.05;;;;;;;13.44;68.47;99919.91;5136819;27;19907;-63
2022/11/16 11:56:32;;;;;;;9.75;2.20;;;;;;;13.36;68.57;99921.84;5136306;27;20030;-64
2022/11/16 11:58:58;;;;;;;9.93;2.42;;;;;;;13.20;68.54;99926.47;5135098;27;20015;-63
2022/11/16 12:01:36;;;;;;;11.07;2.28;;;;;;;13.13;69.28;99921.25;5135874;27;20054;-64
2022/11/16 12:04:56;;;;;;;10.65;2.40;;;;;;;13.24;70.09;99906.09;5136157;27;20063;-63
2022/11/16 12:07:31;;;;;;;11.18;2.38;;;;;;;13.61;69.10;99902.84;5052862;28;20040;-63
2022/11/16 12:09:59;;;;;;;6.57;2.22;;;;;;;13.86;68.87;99906.84;5124404;27;20547;-64
2022/11/16 12:12:43;;;;;;;8.82;2.30;;;;;;;13.91;66.98;99904.97;5136106;27;20468;-63
2022/11/16 12:15:27;;;;;;;9.05;2.25;;;;;;;13.91;67.24;99898.78;5136055;27;20055;-63